createdAt,value
2019-03-28T00:00:56.953Z,10.50
2019-03-28T00:03:30.698Z,10.00
2019-03-28T00:06:04.783Z,10.50
2019-03-28T00:08:38.549Z,10.25
2019-03-28T00:11:12.457Z,11.40
2019-03-28T00:13:46.183Z,12.00
2019-03-28T00:16:19.981Z,11.00
2019-03-28T00:18:57.350Z,13.50
2019-03-28T00:21:29.168Z,12.00
2019-03-28T00:24:02.908Z,11.00
2019-03-28T00:26:36.650Z,13.00
2019-03-28T00:29:10.384Z,12.00
2019-03-28T00:31:47.909Z,13.00
2019-03-28T00:34:21.273Z,13.00
2019-03-28T00:36:55.161Z,10.75
2019-03-28T00:39:30.303Z,11.50
2019-03-28T00:42:04.018Z,11.00
2019-03-28T00:44:37.832Z,11.25
2019-03-28T00:47:14.318Z,12.80
2019-03-28T00:49:48.056Z,14.50
2019-03-28T00:52:21.811Z,15.00
2019-03-28T00:54:58.105Z,13.75
2019-03-28T00:57:31.860Z,14.00
2019-03-28T01:00:09.904Z,13.60
2019-03-28T01:02:43.641Z,14.50
2019-03-28T01:05:17.466Z,14.17
2019-03-28T01:07:51.226Z,13.80
2019-03-28T01:10:24.999Z,14.25
2019-03-28T01:13:01.714Z,15.00
2019-03-28T01:15:35.480Z,14.60
2019-03-28T01:18:09.213Z,14.50
2019-03-28T01:20:43.119Z,14.00
2019-03-28T01:23:16.926Z,15.50
2019-03-28T01:25:50.714Z,12.50
2019-03-28T01:28:24.529Z,13.75
2019-03-28T01:31:01.097Z,14.50
2019-03-28T01:33:34.828Z,15.25
2019-03-28T01:36:08.581Z,16.20
2019-03-28T01:38:42.315Z,13.50
2019-03-28T01:41:16.285Z,13.25
2019-03-28T01:43:50.089Z,14.75
2019-03-28T01:46:23.815Z,15.00
2019-03-28T01:48:58.348Z,14.60
2019-03-28T01:51:32.191Z,10.50
2019-03-28T01:54:05.913Z,14.50
2019-03-28T01:56:39.651Z,15.00
2019-03-28T01:59:13.427Z,15.50
2019-03-28T02:01:47.191Z,15.50
2019-03-28T02:04:20.931Z,14.25
2019-03-28T02:06:54.844Z,14.60
2019-03-28T02:09:28.615Z,13.80
2019-03-28T02:12:02.373Z,15.00
2019-03-28T02:14:36.105Z,14.25
2019-03-28T02:17:09.870Z,14.80
2019-03-28T02:19:43.625Z,14.00
2019-03-28T02:22:17.375Z,12.80
2019-03-28T02:24:51.125Z,12.00
2019-03-28T02:27:25.958Z,12.00
2019-03-28T02:29:59.828Z,14.20
2019-03-28T02:32:34.207Z,14.00
2019-03-28T02:35:08.122Z,14.00
2019-03-28T02:37:41.890Z,15.50
2019-03-28T02:40:16.766Z,12.00
2019-03-28T02:42:50.566Z,13.25
2019-03-28T02:45:24.342Z,15.00
2019-03-28T02:48:01.641Z,13.20
2019-03-28T02:50:35.878Z,15.25
2019-03-28T02:53:09.609Z,11.00
2019-03-28T02:55:43.369Z,11.25
2019-03-28T02:58:17.094Z,14.40
2019-03-28T03:00:51.071Z,14.25
2019-03-28T03:03:25.119Z,13.75
2019-03-28T03:05:58.886Z,12.00
2019-03-28T03:08:33.605Z,11.75
2019-03-28T03:11:07.533Z,13.50
2019-03-28T03:13:41.266Z,11.50
2019-03-28T03:16:14.999Z,13.80
2019-03-28T03:18:48.756Z,13.75
2019-03-28T03:21:22.464Z,14.25
2019-03-28T03:23:56.252Z,15.00
2019-03-28T03:26:29.984Z,15.00
2019-03-28T03:29:03.747Z,10.00
2019-03-28T03:31:37.476Z,14.00
2019-03-28T03:34:12.154Z,12.40
2019-03-28T03:36:45.954Z,12.00
2019-03-28T03:39:19.728Z,16.00
2019-03-28T03:41:53.815Z,16.50
2019-03-28T03:44:27.606Z,15.25
2019-03-28T03:47:01.386Z,13.50
2019-03-28T03:49:35.142Z,14.00
2019-03-28T03:52:08.871Z,14.25
2019-03-28T03:54:42.608Z,13.50
2019-03-28T03:57:16.329Z,14.20
2019-03-28T03:59:50.115Z,13.60
2019-03-28T04:02:23.881Z,14.00
2019-03-28T04:04:57.617Z,16.00
2019-03-28T04:07:31.423Z,14.00
2019-03-28T04:10:05.839Z,16.80
2019-03-28T04:12:39.627Z,15.00
2019-03-28T04:15:13.360Z,15.00
2019-03-28T04:17:47.713Z,16.20
2019-03-28T04:20:21.630Z,14.00
2019-03-28T04:22:55.370Z,14.25
2019-03-28T04:25:29.167Z,14.60
2019-03-28T04:28:02.929Z,14.00
2019-03-28T04:30:36.734Z,15.50
2019-03-28T04:33:10.463Z,15.75
2019-03-28T04:35:44.234Z,14.80
2019-03-28T04:38:17.963Z,14.75
2019-03-28T04:40:51.708Z,14.50
2019-03-28T04:43:25.632Z,15.00
2019-03-28T04:45:59.607Z,16.00
2019-03-28T04:48:33.373Z,14.00
2019-03-28T04:51:07.114Z,14.25
2019-03-28T04:53:40.862Z,13.25
2019-03-28T04:56:14.634Z,16.50
2019-03-28T04:58:49.353Z,15.00
2019-03-28T05:01:23.274Z,14.40
2019-03-28T05:03:57.144Z,16.25
2019-03-28T05:06:31.046Z,13.00
2019-03-28T05:09:05.470Z,14.50
2019-03-28T05:11:39.218Z,16.00
2019-03-28T05:14:13.008Z,15.50
2019-03-28T05:16:46.753Z,16.25
2019-03-28T05:19:20.538Z,15.00
2019-03-28T05:21:54.280Z,15.75
2019-03-28T05:24:28.042Z,17.50
2019-03-28T05:27:01.802Z,14.50
2019-03-28T05:29:35.554Z,15.00
2019-03-28T05:32:09.308Z,14.00
2019-03-28T05:34:44.688Z,16.00
2019-03-28T05:37:18.460Z,17.40
2019-03-28T05:39:52.184Z,17.00
2019-03-28T05:42:25.926Z,16.25
2019-03-28T05:44:59.662Z,15.75
2019-03-28T05:47:33.416Z,15.40
2019-03-28T05:50:07.146Z,19.75
2019-03-28T05:52:40.893Z,18.25
2019-03-28T05:55:14.992Z,17.50
2019-03-28T05:57:48.732Z,18.50
2019-03-28T06:00:22.489Z,20.00
2019-03-28T06:02:56.229Z,18.00
2019-03-28T06:05:29.963Z,20.25
2019-03-28T06:08:03.713Z,18.00
2019-03-28T06:10:37.439Z,19.25
2019-03-28T06:13:11.194Z,18.25
2019-03-28T06:15:44.992Z,18.00
2019-03-28T06:18:18.725Z,19.75
2019-03-28T06:20:52.459Z,20.80
2019-03-28T06:23:26.189Z,19.50
2019-03-28T06:25:59.936Z,19.25
2019-03-28T06:28:33.670Z,17.75
2019-03-28T06:31:07.526Z,20.20
2019-03-28T06:33:41.246Z,22.25
2019-03-28T06:36:14.982Z,19.00
2019-03-28T06:38:48.726Z,20.50
2019-03-28T06:41:23.254Z,19.25
2019-03-28T06:43:57.474Z,18.50
2019-03-28T06:46:31.340Z,23.00
2019-03-28T06:49:05.088Z,23.75
2019-03-28T06:51:38.823Z,18.75
2019-03-28T06:54:12.815Z,23.20
2019-03-28T06:56:46.632Z,21.40
2019-03-28T06:59:20.559Z,22.25
2019-03-28T07:01:54.322Z,18.00
2019-03-28T07:04:28.078Z,24.75
2019-03-28T07:07:01.814Z,23.00
2019-03-28T07:09:35.650Z,23.20
2019-03-28T07:12:09.376Z,22.25
2019-03-28T07:14:43.128Z,22.50
2019-03-28T07:17:16.872Z,20.80
2019-03-28T07:19:50.666Z,22.00
2019-03-28T07:22:24.508Z,22.40
2019-03-28T07:24:58.310Z,21.50
2019-03-28T07:27:32.068Z,21.25
2019-03-28T07:30:10.428Z,19.00
2019-03-28T07:32:44.183Z,22.50
2019-03-28T07:35:17.912Z,20.50
2019-03-28T07:37:51.680Z,18.80
2019-03-28T07:40:25.699Z,20.50
2019-03-28T07:42:59.666Z,19.80
2019-03-28T07:45:34.596Z,20.50
2019-03-28T07:48:08.509Z,20.00
2019-03-28T07:50:42.709Z,19.00
2019-03-28T07:53:19.677Z,21.80
2019-03-28T07:55:52.179Z,18.50
2019-03-28T07:58:25.936Z,20.25
2019-03-28T08:00:59.673Z,16.00
2019-03-28T08:03:33.934Z,20.25
2019-03-28T08:06:12.603Z,20.00
2019-03-28T08:08:45.336Z,22.00
2019-03-28T08:11:19.104Z,18.50
2019-03-28T08:13:52.885Z,19.50
2019-03-28T08:16:28.874Z,19.00
2019-03-28T08:19:02.106Z,19.25
2019-03-28T08:21:35.839Z,18.75
2019-03-28T08:24:09.589Z,17.20
2019-03-28T08:26:43.320Z,19.75
2019-03-28T08:29:17.186Z,18.20
2019-03-28T08:31:50.917Z,16.50
2019-03-28T08:34:24.649Z,16.00
2019-03-28T08:36:58.431Z,16.25
2019-03-28T08:39:32.166Z,15.00
2019-03-28T08:42:05.890Z,16.50
2019-03-28T08:44:39.640Z,15.40
2019-03-28T08:47:13.418Z,16.50
2019-03-28T08:49:47.185Z,20.50
2019-03-28T08:52:20.957Z,16.50
2019-03-28T08:54:54.676Z,17.60
2019-03-28T08:57:28.434Z,16.25
2019-03-28T09:00:02.742Z,17.50
2019-03-28T09:02:36.511Z,16.25
2019-03-28T09:05:10.249Z,16.00
2019-03-28T09:07:44.010Z,13.80
2019-03-28T09:10:17.753Z,16.50
2019-03-28T09:12:51.504Z,14.75
2019-03-28T09:15:25.315Z,15.75
2019-03-28T09:18:00.379Z,17.00
2019-03-28T09:20:34.255Z,14.25
2019-03-28T09:23:08.103Z,13.50
2019-03-28T09:25:41.852Z,13.60
2019-03-28T09:28:16.144Z,12.25
2019-03-28T09:30:51.442Z,13.00
2019-03-28T09:33:25.763Z,13.75
2019-03-28T09:35:59.559Z,12.50
2019-03-28T09:38:33.382Z,13.00
2019-03-28T09:41:07.279Z,13.75
2019-03-28T09:43:54.177Z,12.20
2019-03-28T09:46:16.569Z,16.00
2019-03-28T09:48:50.358Z,14.25
2019-03-28T09:51:24.137Z,13.50
2019-03-28T09:53:57.884Z,11.80
2019-03-28T09:56:31.697Z,12.00
2019-03-28T09:59:05.782Z,12.50
2019-03-28T10:01:39.505Z,10.25
2019-03-28T10:04:13.254Z,11.60
2019-03-28T10:06:47.026Z,12.25
2019-03-28T10:09:20.815Z,11.25
2019-03-28T10:11:54.625Z,12.25
2019-03-28T10:14:28.457Z,9.00
2019-03-28T10:17:02.378Z,11.00
2019-03-28T10:19:36.119Z,7.40
2019-03-28T10:22:09.865Z,11.50
2019-03-28T10:24:44.549Z,9.00
2019-03-28T10:27:19.363Z,12.25
2019-03-28T10:29:53.371Z,14.00
2019-03-28T10:32:27.136Z,12.00
2019-03-28T10:35:01.157Z,9.00
2019-03-28T10:37:34.928Z,11.25
2019-03-28T10:40:08.675Z,9.00
2019-03-28T10:42:42.452Z,9.75
2019-03-28T10:45:16.203Z,10.20
2019-03-28T10:47:49.972Z,9.50
2019-03-28T10:50:23.745Z,9.00
2019-03-28T10:52:57.484Z,9.00
2019-03-28T10:55:31.248Z,8.20
2019-03-28T10:58:17.773Z,8.00
2019-03-28T11:00:40.597Z,7.00
2019-03-28T11:03:14.439Z,8.80
2019-03-28T11:05:48.219Z,7.50
2019-03-28T11:08:22.103Z,7.00
2019-03-28T11:10:56.537Z,7.25
2019-03-28T11:13:30.353Z,6.75
2019-03-28T11:16:04.078Z,5.50
2019-03-28T11:18:37.803Z,4.00
2019-03-28T11:21:12.651Z,3.50
2019-03-28T11:23:46.397Z,5.20
2019-03-28T11:26:20.133Z,4.00
2019-03-28T11:28:53.852Z,4.50
2019-03-28T11:31:27.719Z,6.75
2019-03-28T11:34:01.506Z,4.00
2019-03-28T11:36:35.302Z,3.50
2019-03-28T11:39:09.034Z,6.00
2019-03-28T11:41:42.758Z,4.50
2019-03-28T11:44:16.510Z,4.00
2019-03-28T11:46:50.242Z,3.75
2019-03-28T11:49:23.966Z,3.00
2019-03-28T11:51:57.696Z,6.00
2019-03-28T11:54:31.405Z,7.00
2019-03-28T11:57:05.177Z,6.75
2019-03-28T11:59:39.269Z,9.00
2019-03-28T12:02:19.824Z,5.50
2019-03-28T12:04:48.783Z,7.40
2019-03-28T12:07:22.640Z,7.00
2019-03-28T12:09:56.377Z,7.00
2019-03-28T12:12:30.104Z,7.25
2019-03-28T12:15:05.379Z,6.50
2019-03-28T12:17:39.155Z,5.00
2019-03-28T12:20:12.956Z,4.00
2019-03-28T12:22:46.706Z,4.00
2019-03-28T12:25:20.447Z,5.00
2019-03-28T12:27:54.172Z,7.00
2019-03-28T12:30:27.953Z,6.25
2019-03-28T12:33:01.692Z,6.40
2019-03-28T12:35:35.452Z,6.25
2019-03-28T12:38:09.177Z,6.00
2019-03-28T12:40:42.923Z,6.00
2019-03-28T12:43:16.665Z,5.20
2019-03-28T12:45:50.395Z,5.25
2019-03-28T12:48:24.139Z,4.00
2019-03-28T12:50:59.146Z,4.00
2019-03-28T12:53:33.083Z,5.25
2019-03-28T12:56:06.825Z,4.80
2019-03-28T12:58:40.573Z,5.50
2019-03-28T13:01:14.291Z,6.75
2019-03-28T13:03:48.037Z,4.00
2019-03-28T13:06:21.780Z,6.25
2019-03-28T13:08:55.470Z,7.75
2019-03-28T13:11:29.221Z,4.00
2019-03-28T13:14:02.977Z,5.40
2019-03-28T13:16:36.722Z,3.00
2019-03-28T13:19:10.446Z,3.75
2019-03-28T13:21:44.193Z,4.25
2019-03-28T13:24:17.930Z,5.20
2019-03-28T13:26:51.640Z,5.25
2019-03-28T13:29:25.363Z,4.00
2019-03-28T13:31:59.095Z,4.40
2019-03-28T13:34:32.877Z,4.00
2019-03-28T13:37:06.619Z,4.75
2019-03-28T13:39:40.335Z,4.00
2019-03-28T13:42:14.052Z,6.20
2019-03-28T13:44:48.645Z,5.25
2019-03-28T13:47:22.428Z,10.25
2019-03-28T13:49:56.151Z,8.00
2019-03-28T13:52:29.883Z,9.00
2019-03-28T13:55:05.158Z,8.00
2019-03-28T13:57:38.932Z,11.60
2019-03-28T14:00:13.939Z,11.00
2019-03-28T14:02:56.976Z,8.25
2019-03-28T14:05:23.090Z,9.40
2019-03-28T14:07:56.829Z,8.75
2019-03-28T14:10:30.555Z,23.00
2019-03-28T14:13:04.820Z,32.20
2019-03-28T14:15:38.552Z,31.25
2019-03-28T14:18:12.289Z,23.00
2019-03-28T14:20:46.149Z,9.40
2019-03-28T14:23:19.878Z,9.00
2019-03-28T14:25:53.633Z,11.25
2019-03-28T14:28:27.362Z,9.50
2019-03-28T14:31:01.151Z,14.50
2019-03-28T14:33:35.048Z,14.50
2019-03-28T14:36:08.754Z,8.50
2019-03-28T14:38:42.456Z,9.25
2019-03-28T14:41:16.184Z,11.00
2019-03-28T14:43:49.910Z,11.00
2019-03-28T14:46:23.649Z,10.50
2019-03-28T14:48:57.370Z,9.00
2019-03-28T14:51:31.095Z,11.00
2019-03-28T14:54:04.816Z,9.50
2019-03-28T14:56:38.526Z,10.25
2019-03-28T14:59:12.416Z,8.60
2019-03-28T15:01:46.135Z,8.50
2019-03-28T15:04:19.831Z,9.25
2019-03-28T15:06:53.572Z,9.00
2019-03-28T15:09:27.270Z,8.25
2019-03-28T15:12:01.002Z,8.75
2019-03-28T15:14:34.707Z,9.00
2019-03-28T15:17:08.436Z,8.80
2019-03-28T15:19:42.145Z,9.00
2019-03-28T15:22:15.864Z,9.50
2019-03-28T15:24:49.584Z,8.75
2019-03-28T15:27:23.304Z,8.00
2019-03-28T15:29:57.027Z,10.00
2019-03-28T15:32:30.742Z,8.50
2019-03-28T15:35:05.238Z,9.60
2019-03-28T15:37:38.943Z,20.25
2019-03-28T15:40:12.699Z,10.00
2019-03-28T15:42:46.427Z,6.00
2019-03-28T15:45:20.121Z,9.50
2019-03-28T15:47:53.837Z,8.50
2019-03-28T15:50:27.540Z,8.80
2019-03-28T15:53:01.261Z,8.25
2019-03-28T15:55:34.960Z,9.00
2019-03-28T15:58:22.094Z,11.00
2019-03-28T16:00:44.090Z,16.00
2019-03-28T16:03:17.798Z,8.00
2019-03-28T16:05:57.945Z,8.20
2019-03-28T16:08:27.786Z,15.50
2019-03-28T16:11:01.848Z,8.00
2019-03-28T16:13:37.523Z,17.60
2019-03-28T16:16:11.323Z,11.75
2019-03-28T16:18:45.357Z,10.00
2019-03-28T16:21:19.598Z,9.00
2019-03-28T16:23:53.469Z,9.00
2019-03-28T16:26:27.189Z,9.00
2019-03-28T16:29:00.890Z,8.25
2019-03-28T16:31:34.623Z,8.75
2019-03-28T16:34:08.349Z,8.50
2019-03-28T16:36:42.064Z,8.00
2019-03-28T16:39:15.766Z,8.80
2019-03-28T16:41:49.810Z,9.00
2019-03-28T16:44:23.723Z,9.00
2019-03-28T16:46:57.480Z,8.50
2019-03-28T16:49:31.204Z,8.75
2019-03-28T16:52:04.896Z,9.00
2019-03-28T16:54:38.638Z,9.00
2019-03-28T16:57:12.920Z,9.40
2019-03-28T16:59:46.638Z,5.00
2019-03-28T17:02:20.348Z,9.75
2019-03-28T17:04:54.857Z,10.50
2019-03-28T17:07:28.566Z,8.50
2019-03-28T17:10:02.291Z,9.50
2019-03-28T17:12:36.013Z,7.25
2019-03-28T17:15:09.722Z,7.00
2019-03-28T17:17:43.432Z,8.00
2019-03-28T17:20:17.150Z,8.50
2019-03-28T17:22:50.838Z,8.00
2019-03-28T17:25:24.558Z,7.50
2019-03-28T17:27:58.219Z,8.00
2019-03-28T17:30:31.947Z,8.75
2019-03-28T17:33:05.943Z,8.00
2019-03-28T17:35:39.948Z,8.00
2019-03-28T17:38:13.680Z,9.25
2019-03-28T17:40:47.387Z,8.75
2019-03-28T17:43:21.087Z,9.00
2019-03-28T17:45:54.877Z,7.20
2019-03-28T17:48:28.917Z,9.50
2019-03-28T17:51:03.873Z,8.00
2019-03-28T17:53:37.577Z,10.50
2019-03-28T17:56:12.132Z,12.20
2019-03-28T17:58:45.867Z,10.00
2019-03-28T18:01:19.577Z,8.33
2019-03-28T18:03:53.288Z,7.25
2019-03-28T18:06:27.007Z,9.60
2019-03-28T18:09:00.707Z,8.00
2019-03-28T18:11:34.477Z,9.50
2019-03-28T18:14:08.249Z,8.00
2019-03-28T18:16:41.995Z,8.40
2019-03-28T18:19:15.794Z,8.50
2019-03-28T18:22:02.420Z,7.00
2019-03-28T18:24:24.965Z,9.00
2019-03-28T18:26:58.685Z,8.75
2019-03-28T18:29:32.400Z,10.00
2019-03-28T18:32:06.505Z,11.20
2019-03-28T18:34:40.267Z,9.80
2019-03-28T18:37:13.967Z,9.25
2019-03-28T18:39:47.775Z,9.00
2019-03-28T18:42:21.520Z,10.00
2019-03-28T18:44:55.244Z,14.00
2019-03-28T18:47:28.957Z,14.75
2019-03-28T18:50:04.030Z,13.00
2019-03-28T18:52:37.948Z,12.00
2019-03-28T18:55:12.336Z,10.20
2019-03-28T18:57:46.224Z,11.00
2019-03-28T19:00:20.976Z,18.67
2019-03-28T19:02:54.706Z,12.00
2019-03-28T19:05:28.436Z,15.75
2019-03-28T19:08:02.161Z,10.00
2019-03-28T19:10:35.897Z,10.25
2019-03-28T19:13:09.638Z,8.00
2019-03-28T19:15:43.334Z,9.20
2019-03-28T19:18:17.050Z,9.40
2019-03-28T19:20:50.776Z,9.00
2019-03-28T19:23:24.977Z,8.50
2019-03-28T19:25:58.902Z,10.00
2019-03-28T19:28:32.628Z,9.50
2019-03-28T19:31:06.352Z,8.80
2019-03-28T19:33:40.906Z,8.75
2019-03-28T19:36:14.714Z,8.50
2019-03-28T19:38:48.453Z,8.00
2019-03-28T19:41:22.199Z,8.25
2019-03-28T19:43:55.932Z,11.00
2019-03-28T19:46:29.662Z,8.50
2019-03-28T19:49:03.368Z,13.00
2019-03-28T19:51:37.112Z,10.25
2019-03-28T19:54:10.808Z,14.00
2019-03-28T19:56:44.576Z,35.00
2019-03-28T19:59:18.358Z,35.00
2019-03-28T20:01:52.187Z,26.00
2019-03-28T20:04:25.899Z,14.00
2019-03-28T20:06:59.637Z,13.00
2019-03-28T20:09:33.379Z,12.60
2019-03-28T20:12:07.114Z,11.50
2019-03-28T20:14:41.218Z,10.50
2019-03-28T20:17:15.613Z,10.25
2019-03-28T20:19:49.409Z,14.25
2019-03-28T20:22:23.152Z,14.75
2019-03-28T20:24:58.245Z,14.50
2019-03-28T20:27:32.195Z,18.25
2019-03-28T20:30:06.388Z,19.75
2019-03-28T20:32:40.119Z,18.25
2019-03-28T20:35:13.901Z,23.50
2019-03-28T20:37:47.619Z,25.00
2019-03-28T20:40:21.363Z,14.25
2019-03-28T20:42:55.073Z,12.75
2019-03-28T20:45:28.869Z,15.25
2019-03-28T20:48:02.602Z,15.40
2019-03-28T20:50:36.340Z,14.50
2019-03-28T20:53:10.134Z,19.25
2019-03-28T20:55:43.863Z,17.75
2019-03-28T20:58:17.693Z,17.25
2019-03-28T21:00:51.405Z,17.60
2019-03-28T21:03:25.214Z,17.50
2019-03-28T21:05:58.969Z,17.00
2019-03-28T21:08:32.745Z,16.80
2019-03-28T21:11:06.465Z,15.50
2019-03-28T21:13:40.198Z,15.50
2019-03-28T21:16:13.932Z,12.00
2019-03-28T21:18:47.835Z,12.40
2019-03-28T21:21:21.594Z,16.00
2019-03-28T21:23:55.331Z,14.00
2019-03-28T21:26:29.076Z,14.25
2019-03-28T21:29:02.844Z,12.20
2019-03-28T21:31:49.232Z,15.50
2019-03-28T21:34:12.136Z,12.00
2019-03-28T21:36:45.869Z,16.20
2019-03-28T21:39:19.582Z,17.00
2019-03-28T21:41:53.339Z,16.50
2019-03-28T21:44:27.071Z,12.50
2019-03-28T21:47:00.830Z,15.20
2019-03-28T21:49:34.981Z,14.00
2019-03-28T21:52:08.955Z,14.40
2019-03-28T21:54:42.692Z,13.00
2019-03-28T21:57:16.431Z,14.20
2019-03-28T21:59:50.152Z,14.50
2019-03-28T22:02:24.210Z,16.80
2019-03-28T22:04:58.733Z,17.50
2019-03-28T22:07:32.612Z,15.00
2019-03-28T22:10:08.788Z,18.00
2019-03-28T22:12:42.192Z,18.00
2019-03-28T22:15:15.902Z,15.75
2019-03-28T22:17:49.695Z,14.25
2019-03-28T22:20:23.411Z,16.25
2019-03-28T22:22:57.127Z,16.50
2019-03-28T22:25:30.905Z,16.00
2019-03-28T22:28:04.731Z,16.25
2019-03-28T22:30:39.004Z,18.00
2019-03-28T22:33:13.039Z,17.20
2019-03-28T22:35:46.827Z,18.00
2019-03-28T22:38:22.239Z,17.25
2019-03-28T22:40:56.945Z,19.80
2019-03-28T22:43:33.273Z,18.25
2019-03-28T22:46:07.058Z,14.20
2019-03-28T22:48:40.830Z,18.75
2019-03-28T22:51:15.696Z,18.50
2019-03-28T22:53:49.535Z,19.00
2019-03-28T22:56:23.625Z,20.50
2019-03-28T22:58:59.215Z,20.00
2019-03-28T23:01:33.044Z,18.20
2019-03-28T23:04:06.804Z,17.00
2019-03-28T23:06:40.555Z,19.25
2019-03-28T23:09:14.247Z,18.00
2019-03-28T23:11:48.011Z,16.25
2019-03-28T23:14:23.510Z,18.00
2019-03-28T23:16:57.216Z,18.20
2019-03-28T23:19:31.982Z,19.00
2019-03-28T23:22:07.942Z,16.75
2019-03-28T23:24:49.000Z,17.00
2019-03-28T23:27:17.600Z,18.00
2019-03-28T23:29:51.306Z,21.60
2019-03-28T23:32:25.025Z,18.25
2019-03-28T23:34:58.865Z,19.75
2019-03-28T23:37:36.464Z,18.25
2019-03-28T23:40:10.252Z,17.80
2019-03-28T23:42:44.178Z,18.25
2019-03-28T23:45:17.940Z,15.50
2019-03-28T23:47:54.401Z,19.00
2019-03-28T23:50:27.318Z,19.00
2019-03-28T23:53:03.784Z,19.00
2019-03-28T23:55:37.480Z,21.00
2019-03-28T23:58:11.192Z,16.00
